Time;durP1;ratioP1;P1;durP2;ratioP2;P2;SDS_P1;SDS_P2;PMS_P1;PMS_P2;Temp;Humidity;BMP_temperature;BMP_pressure;BME280_temperature;BME280_humidity;BME280_pressure;Samples;Min_cycle;Max_cycle;Signal;HPM_P1;HPM_P2
2023/04/20 00:01:38;;;;;;;8.60;3.80;;;7.50;77.80;;;;;;4955848;29;20051;-80
2023/04/20 00:04:04;;;;;;;8.35;3.65;;;7.50;77.70;;;;;;4940336;29;20055;-79
2023/04/20 00:06:31;;;;;;;8.57;4.78;;;7.50;77.80;;;;;;4956083;29;20381;-79
2023/04/20 00:08:57;;;;;;;7.93;4.05;;;7.60;78.10;;;;;;4940114;29;20459;-81
2023/04/20 00:11:23;;;;;;;10.10;4.40;;;7.50;78.20;;;;;;4956045;29;20075;-80
2023/04/20 00:13:49;;;;;;;8.57;3.85;;;7.50;78.30;;;;;;4923972;29;20039;-80
2023/04/20 00:16:14;;;;;;;9.95;3.63;;;7.50;78.30;;;;;;4939867;29;20043;-80
2023/04/20 00:18:40;;;;;;;7.22;3.40;;;7.60;78.40;;;;;;4955606;29;20047;-81
2023/04/20 00:21:06;;;;;;;6.45;3.28;;;7.60;78.40;;;;;;4923739;29;20039;-80
2023/04/20 00:23:32;;;;;;;5.95;3.80;;;7.60;78.30;;;;;;4939537;29;20094;-80
2023/04/20 00:25:57;;;;;;;6.28;3.15;;;7.50;78.20;;;;;;4955538;29;20043;-80
2023/04/20 00:28:23;;;;;;;8.23;3.50;;;7.50;78.30;;;;;;4954522;28;20508;-80
2023/04/20 00:30:49;;;;;;;6.65;3.05;;;7.50;78.20;;;;;;4939560;29;20059;-81
2023/04/20 00:33:14;;;;;;;5.10;2.80;;;7.60;78.20;;;;;;4939273;28;20047;-79
2023/04/20 00:35:40;;;;;;;6.50;3.33;;;7.50;78.10;;;;;;4923739;29;20042;-80
2023/04/20 00:38:06;;;;;;;5.95;3.20;;;7.50;78.20;;;;;;4939225;29;20047;-79
2023/04/20 00:40:32;;;;;;;8.80;3.20;;;7.50;78.20;;;;;;4923422;29;20086;-79
2023/04/20 00:43:11;;;;;;;9.63;3.28;;;7.60;78.00;;;;;;4939481;29;20047;-80
2023/04/20 00:45:37;;;;;;;6.72;2.55;;;7.60;77.90;;;;;;4954999;29;20039;-79
2023/04/20 00:48:04;;;;;;;5.82;2.80;;;7.60;77.90;;;;;;4938996;29;20062;-80
2023/04/20 00:50:29;;;;;;;8.60;2.90;;;7.60;77.90;;;;;;4939020;29;20174;-80
2023/04/20 00:52:56;;;;;;;6.85;2.80;;;7.60;77.70;;;;;;4939096;29;20130;-81
2023/04/20 00:55:21;;;;;;;5.10;3.08;;;7.60;77.80;;;;;;4954935;29;20474;-80
2023/04/20 00:57:48;;;;;;;6.88;2.72;;;7.60;77.70;;;;;;4954393;29;20094;-80
2023/04/20 01:00:14;;;;;;;6.22;2.80;;;7.50;77.60;;;;;;4954690;29;20050;-80
2023/04/20 01:02:40;;;;;;;6.47;2.55;;;7.60;77.50;;;;;;4938817;29;20558;-81
2023/04/20 01:05:06;;;;;;;7.28;2.63;;;7.60;77.40;;;;;;4939020;29;20126;-80
2023/04/20 01:07:31;;;;;;;6.90;2.60;;;7.60;77.10;;;;;;4939691;29;20043;-80
2023/04/20 01:09:57;;;;;;;5.88;2.58;;;7.60;77.00;;;;;;4923178;29;20503;-80
2023/04/20 01:12:23;;;;;;;6.82;2.45;;;7.50;77.10;;;;;;4923585;29;20046;-81
2023/04/20 01:14:48;;;;;;;3.78;2.35;;;7.40;77.10;;;;;;4943962;29;20550;-80
2023/04/20 01:17:14;;;;;;;7.68;2.70;;;7.50;77.20;;;;;;4946220;29;20117;-81
2023/04/20 01:19:40;;;;;;;6.80;3.00;;;7.40;77.30;;;;;;4950789;29;20031;-79
2023/04/20 01:22:07;;;;;;;5.55;2.83;;;7.40;77.30;;;;;;4980293;28;20031;-80
2023/04/20 01:24:33;;;;;;;6.20;2.65;;;7.40;77.30;;;;;;4964054;28;20095;-81
2023/04/20 01:27:00;;;;;;;4.53;2.40;;;7.40;77.40;;;;;;4963007;29;20103;-80
2023/04/20 01:29:26;;;;;;;6.93;2.47;;;7.40;77.60;;;;;;4942327;29;20102;-80
2023/04/20 01:31:52;;;;;;;5.32;2.40;;;7.50;77.70;;;;;;4958990;29;20046;-80
2023/04/20 01:34:18;;;;;;;5.88;2.75;;;7.40;77.60;;;;;;4933844;29;20035;-80
2023/04/20 01:36:44;;;;;;;6.43;2.30;;;7.40;77.70;;;;;;4939068;29;20156;-80
2023/04/20 01:39:12;;;;;;;3.30;2.05;;;7.40;77.80;;;;;;4938401;29;20101;-80
2023/04/20 01:41:39;;;;;;;6.20;2.67;;;7.40;78.00;;;;;;4954847;29;20082;-81
2023/04/20 01:44:05;;;;;;;3.40;2.20;;;7.40;78.10;;;;;;4938648;29;20066;-81
2023/04/20 01:46:30;;;;;;;4.10;2.08;;;7.50;78.10;;;;;;4954334;29;20046;-81
2023/04/20 01:48:56;;;;;;;5.55;2.35;;;7.40;78.20;;;;;;4938164;29;20035;-81
2023/04/20 01:51:22;;;;;;;3.38;2.28;;;7.50;78.40;;;;;;4938386;29;20126;-81
2023/04/20 01:53:47;;;;;;;4.28;1.88;;;7.60;78.40;;;;;;4923062;29;20062;-80
2023/04/20 01:56:13;;;;;;;4.82;2.72;;;7.60;78.30;;;;;;4922501;29;20377;-81
2023/04/20 01:58:39;;;;;;;7.40;2.42;;;7.60;78.50;;;;;;4938156;29;20093;-80
2023/04/20 02:01:04;;;;;;;5.43;2.92;;;7.60;78.50;;;;;;4938314;29;20115;-80
2023/04/20 02:03:30;;;;;;;5.13;2.10;;;7.60;78.70;;;;;;4938313;29;20043;-81
2023/04/20 02:05:56;;;;;;;5.00;2.25;;;7.70;78.80;;;;;;4938527;29;20182;-80
2023/04/20 02:08:21;;;;;;;3.92;2.00;;;7.70;78.80;;;;;;4954107;29;20497;-80
2023/04/20 02:10:47;;;;;;;5.90;2.70;;;7.60;79.00;;;;;;4938153;29;20047;-81
2023/04/20 02:13:13;;;;;;;5.35;1.95;;;7.70;79.10;;;;;;4922589;29;20039;-81
2023/04/20 02:15:39;;;;;;;6.20;2.25;;;7.60;79.00;;;;;;4938367;29;20046;-81
2023/04/20 02:18:05;;;;;;;6.05;2.38;;;7.70;79.20;;;;;;4922899;29;20054;-80
2023/04/20 02:20:31;;;;;;;5.22;2.22;;;7.70;79.10;;;;;;4922598;29;20070;-80
2023/04/20 02:22:57;;;;;;;4.75;2.20;;;7.70;79.30;;;;;;4938313;29;20058;-81
2023/04/20 02:25:23;;;;;;;5.10;2.50;;;7.70;79.10;;;;;;4954342;29;20047;-79
2023/04/20 02:27:49;;;;;;;6.03;2.53;;;7.70;79.20;;;;;;4922734;29;20047;-80
2023/04/20 02:30:15;;;;;;;7.97;1.92;;;7.70;79.40;;;;;;4938474;29;20098;-80
2023/04/20 02:32:41;;;;;;;11.35;2.35;;;7.70;79.50;;;;;;4937952;29;20043;-79
2023/04/20 02:35:07;;;;;;;4.88;2.08;;;7.70;79.60;;;;;;4953778;29;20047;-80
2023/04/20 02:37:33;;;;;;;6.82;2.20;;;7.60;79.60;;;;;;4937677;29;20039;-79
2023/04/20 02:39:59;;;;;;;6.53;1.83;;;7.70;79.80;;;;;;4921932;29;20134;-80
2023/04/20 02:42:25;;;;;;;6.35;2.22;;;7.70;79.80;;;;;;4937131;29;20050;-80
2023/04/20 02:44:51;;;;;;;4.78;2.03;;;7.70;79.80;;;;;;4937706;29;20035;-80
2023/04/20 02:47:17;;;;;;;9.07;2.75;;;7.70;80.10;;;;;;4937643;29;20083;-80
2023/04/20 02:49:43;;;;;;;4.10;2.22;;;7.70;79.90;;;;;;4922160;28;20044;-81
2023/04/20 02:52:09;;;;;;;5.63;2.03;;;7.70;80.10;;;;;;4941004;29;20043;-80
2023/04/20 02:54:35;;;;;;;3.38;2.08;;;7.70;80.10;;;;;;4941562;29;20039;-80
2023/04/20 02:57:02;;;;;;;5.82;2.17;;;7.70;80.10;;;;;;4925736;29;20496;-80
2023/04/20 02:59:27;;;;;;;5.97;2.28;;;7.70;80.10;;;;;;4941463;29;20055;-80
2023/04/20 03:01:53;;;;;;;3.85;2.17;;;7.70;80.40;;;;;;4941352;29;20053;-79
2023/04/20 03:04:22;;;;;;;5.65;2.22;;;7.70;80.40;;;;;;4941025;29;20440;-81
2023/04/20 03:06:49;;;;;;;5.20;2.05;;;7.60;80.40;;;;;;4941335;29;20034;-81
2023/04/20 03:09:15;;;;;;;7.15;3.03;;;7.60;80.50;;;;;;4957373;29;20106;-80
2023/04/20 03:11:41;;;;;;;6.63;2.83;;;7.60;80.90;;;;;;4941127;29;20043;-79
2023/04/20 03:14:06;;;;;;;5.95;2.28;;;7.60;80.80;;;;;;4925073;29;20085;-80
2023/04/20 03:16:32;;;;;;;6.18;2.30;;;7.60;81.00;;;;;;4924968;29;20046;-81
2023/04/20 03:18:58;;;;;;;6.78;2.20;;;7.70;81.10;;;;;;4940419;29;20044;-80
2023/04/20 03:21:24;;;;;;;9.32;3.05;;;7.80;81.40;;;;;;4925002;29;20077;-81
2023/04/20 03:23:49;;;;;;;10.55;3.22;;;7.80;81.20;;;;;;4956976;29;20074;-80
2023/04/20 03:26:16;;;;;;;8.38;2.80;;;7.80;81.10;;;;;;4940989;29;20055;-81
2023/04/20 03:28:42;;;;;;;8.20;2.70;;;7.80;81.40;;;;;;4924981;29;20098;-80
2023/04/20 03:31:07;;;;;;;7.85;2.53;;;7.90;81.20;;;;;;4940612;29;20495;-79
2023/04/20 03:33:33;;;;;;;5.68;2.10;;;7.90;81.30;;;;;;4941014;29;20043;-80
2023/04/20 03:35:59;;;;;;;6.80;2.92;;;7.90;81.30;;;;;;4924757;29;20040;-80
2023/04/20 03:38:25;;;;;;;9.75;2.88;;;7.90;81.20;;;;;;4940535;28;20047;-81
2023/04/20 03:40:50;;;;;;;7.97;2.83;;;8.00;81.20;;;;;;4940842;29;20047;-79
2023/04/20 03:43:16;;;;;;;6.63;3.25;;;7.90;81.30;;;;;;4940468;29;20039;-81
2023/04/20 03:45:42;;;;;;;7.50;3.00;;;8.00;81.20;;;;;;4956471;29;20043;-80
2023/04/20 03:48:07;;;;;;;7.47;2.70;;;7.90;81.20;;;;;;4939864;29;20047;-80
2023/04/20 03:50:33;;;;;;;9.60;3.13;;;8.00;81.00;;;;;;4940066;29;20130;-80
2023/04/20 03:52:59;;;;;;;9.30;3.28;;;7.90;81.20;;;;;;4956365;29;20111;-81
2023/04/20 03:55:24;;;;;;;7.75;3.00;;;7.90;81.20;;;;;;4956245;29;20074;-81
2023/04/20 03:57:51;;;;;;;5.60;3.63;;;7.90;81.10;;;;;;4943091;28;20071;-80
2023/04/20 04:00:16;;;;;;;7.78;2.78;;;7.90;80.80;;;;;;4943467;28;20050;-80
2023/04/20 04:02:42;;;;;;;6.35;2.63;;;7.90;80.70;;;;;;4926605;28;20112;-80
2023/04/20 04:05:08;;;;;;;7.88;2.88;;;7.90;80.70;;;;;;4927347;28;20043;-80
2023/04/20 04:07:33;;;;;;;7.38;3.60;;;7.90;80.60;;;;;;4943070;28;20043;-80
2023/04/20 04:09:59;;;;;;;11.18;3.05;;;7.90;80.40;;;;;;4943096;28;20035;-80
2023/04/20 04:12:25;;;;;;;11.48;2.90;;;7.80;80.40;;;;;;4943200;28;20117;-81
2023/04/20 04:14:51;;;;;;;8.90;3.20;;;7.90;80.30;;;;;;4959061;28;20487;-81
2023/04/20 04:17:16;;;;;;;9.30;3.53;;;7.80;80.20;;;;;;4942979;28;20503;-79
2023/04/20 04:19:42;;;;;;;7.78;2.83;;;7.80;80.30;;;;;;4926985;28;20043;-81
2023/04/20 04:22:08;;;;;;;5.88;2.53;;;7.80;80.00;;;;;;4927076;28;20390;-80
2023/04/20 04:24:36;;;;;;;5.18;3.03;;;7.80;79.90;;;;;;4942463;28;20042;-80
2023/04/20 04:27:04;;;;;;;7.35;2.97;;;7.80;79.80;;;;;;4942402;28;20046;-81
2023/04/20 04:29:30;;;;;;;7.03;2.80;;;7.80;79.60;;;;;;4957514;28;20078;-80
2023/04/20 04:31:57;;;;;;;8.57;3.13;;;7.80;79.40;;;;;;4958070;28;20097;-80
2023/04/20 04:34:28;;;;;;;7.90;3.75;;;7.80;79.20;;;;;;4942362;28;20487;-80
2023/04/20 04:36:54;;;;;;;9.70;3.05;;;7.80;79.20;;;;;;4958483;28;20039;-81
2023/04/20 04:39:20;;;;;;;10.45;2.50;;;7.80;79.00;;;;;;4958569;28;20054;-79
2023/04/20 04:41:46;;;;;;;7.40;2.72;;;7.80;79.00;;;;;;4942463;28;20046;-80
2023/04/20 04:44:11;;;;;;;5.75;2.70;;;7.90;78.70;;;;;;4942664;28;20089;-79
2023/04/20 04:46:37;;;;;;;6.43;3.25;;;7.90;78.40;;;;;;4926624;28;20141;-80
2023/04/20 04:49:03;;;;;;;11.52;3.53;;;7.90;78.30;;;;;;4942414;28;20045;-80
2023/04/20 04:51:30;;;;;;;4.10;2.05;;;7.90;78.00;;;;;;4940245;28;20043;-80
2023/04/20 04:53:56;;;;;;;6.82;2.75;;;8.00;77.10;;;;;;4910282;29;20039;-78
2023/04/20 04:56:22;;;;;;;8.25;3.00;;;8.00;76.50;;;;;;4907496;29;20035;-78
2023/04/20 04:58:48;;;;;;;3.45;2.03;;;8.00;75.90;;;;;;4914914;29;20447;-78
2023/04/20 05:01:13;;;;;;;7.75;2.42;;;8.00;75.80;;;;;;4923074;29;20047;-79
2023/04/20 05:03:39;;;;;;;6.20;2.47;;;8.00;75.60;;;;;;4907720;28;20051;-78
2023/04/20 05:06:06;;;;;;;5.88;2.22;;;8.00;75.60;;;;;;4957870;28;20120;-78
2023/04/20 05:08:33;;;;;;;4.93;2.42;;;8.10;75.40;;;;;;4920852;28;20549;-78
2023/04/20 05:10:59;;;;;;;5.43;2.10;;;8.00;75.30;;;;;;4950476;29;20457;-78
2023/04/20 05:13:24;;;;;;;6.00;2.28;;;8.10;75.20;;;;;;4939129;28;20125;-82
2023/04/20 05:15:50;;;;;;;5.80;2.80;;;8.10;75.20;;;;;;4922597;28;20035;-81
2023/04/20 05:18:16;;;;;;;5.50;1.98;;;8.00;75.10;;;;;;4926124;28;20047;-80
2023/04/20 05:20:42;;;;;;;6.63;2.58;;;8.00;75.30;;;;;;4926010;28;20402;-80
2023/04/20 05:23:08;;;;;;;4.75;2.13;;;8.10;75.20;;;;;;4918203;28;20086;-80
2023/04/20 05:25:34;;;;;;;7.35;2.42;;;8.10;75.00;;;;;;4930035;29;20126;-81
2023/04/20 05:27:59;;;;;;;7.60;2.67;;;8.10;74.90;;;;;;4906926;29;20079;-80
2023/04/20 05:30:25;;;;;;;9.55;2.30;;;8.10;74.70;;;;;;4911136;28;20097;-80
2023/04/20 05:32:51;;;;;;;5.20;2.17;;;8.10;74.80;;;;;;4952334;28;20038;-80
2023/04/20 05:35:17;;;;;;;8.23;2.38;;;8.10;73.30;;;;;;4928231;28;20476;-79
2023/04/20 05:37:42;;;;;;;4.90;2.13;;;8.10;74.00;;;;;;4941616;28;20105;-79
2023/04/20 05:40:08;;;;;;;7.13;2.65;;;8.20;74.10;;;;;;4941439;28;20130;-81
2023/04/20 05:42:34;;;;;;;6.50;2.22;;;8.20;74.10;;;;;;4925583;28;20043;-80
2023/04/20 05:45:00;;;;;;;4.40;2.33;;;8.20;73.90;;;;;;4925727;28;20097;-80
2023/04/20 05:47:26;;;;;;;7.25;2.40;;;8.30;73.50;;;;;;4941478;28;20166;-80
2023/04/20 05:49:52;;;;;;;7.57;2.78;;;8.30;72.80;;;;;;4941789;28;20046;-81
2023/04/20 05:52:18;;;;;;;4.63;2.45;;;8.20;72.90;;;;;;4925723;28;20074;-81
2023/04/20 05:54:44;;;;;;;6.00;2.45;;;8.20;73.10;;;;;;4909993;28;20081;-81
2023/04/20 05:57:10;;;;;;;5.65;2.10;;;8.30;72.90;;;;;;4941822;28;20043;-81
2023/04/20 05:59:36;;;;;;;4.68;2.05;;;8.20;72.40;;;;;;4941422;28;20062;-81
2023/04/20 06:02:02;;;;;;;3.75;2.35;;;8.30;72.70;;;;;;4941619;28;20057;-80
2023/04/20 06:04:29;;;;;;;4.20;2.03;;;8.30;72.70;;;;;;4957132;28;20490;-81
2023/04/20 06:06:55;;;;;;;4.88;2.20;;;8.30;72.30;;;;;;4925881;28;20086;-82
2023/04/20 06:09:20;;;;;;;6.22;2.28;;;8.30;71.80;;;;;;4941113;28;20085;-82
2023/04/20 06:11:46;;;;;;;6.40;1.95;;;8.30;71.80;;;;;;4925722;28;20129;-82
2023/04/20 06:14:13;;;;;;;8.10;1.95;;;8.20;70.50;;;;;;4957499;28;20038;-78
2023/04/20 06:16:39;;;;;;;5.75;2.28;;;8.30;70.00;;;;;;4941545;28;20506;-82
2023/04/20 06:19:05;;;;;;;5.18;1.92;;;8.30;71.30;;;;;;4940933;28;20054;-82
2023/04/20 06:21:33;;;;;;;5.65;2.58;;;8.20;70.00;;;;;;4957131;28;20043;-81
2023/04/20 06:23:59;;;;;;;5.18;2.35;;;8.30;71.50;;;;;;4940992;28;20129;-82
2023/04/20 06:26:25;;;;;;;6.25;2.60;;;8.30;71.90;;;;;;4927615;28;20046;-81
2023/04/20 06:28:52;;;;;;;3.40;1.90;;;8.20;72.60;;;;;;4944914;28;20042;-81
2023/04/20 06:31:20;;;;;;;6.47;3.13;;;8.30;72.90;;;;;;4929619;28;20100;-80
2023/04/20 06:33:46;;;;;;;3.88;2.30;;;8.30;73.10;;;;;;4945400;28;20129;-82
2023/04/20 06:36:12;;;;;;;5.53;2.35;;;8.30;74.00;;;;;;4913110;28;20193;-81
2023/04/20 06:38:38;;;;;;;6.07;2.47;;;8.30;74.20;;;;;;4928654;28;20053;-81
2023/04/20 06:41:03;;;;;;;4.22;2.10;;;8.40;74.10;;;;;;4912939;28;20079;-81
2023/04/20 06:43:30;;;;;;;5.70;2.08;;;8.50;74.50;;;;;;4928571;28;20046;-82
2023/04/20 06:45:56;;;;;;;8.13;2.72;;;8.50;74.40;;;;;;4928691;28;20055;-81
2023/04/20 06:48:22;;;;;;;6.80;2.13;;;8.60;74.50;;;;;;4944475;28;20054;-81
2023/04/20 06:50:48;;;;;;;8.07;2.38;;;8.50;74.30;;;;;;4913109;28;20038;-82
2023/04/20 06:53:15;;;;;;;4.47;2.75;;;8.50;74.80;;;;;;4944565;28;20554;-81
2023/04/20 06:55:41;;;;;;;8.32;2.25;;;8.50;75.50;;;;;;4944053;28;20035;-81
2023/04/20 06:58:06;;;;;;;6.43;2.67;;;8.50;75.50;;;;;;4944292;28;20399;-81
2023/04/20 07:00:32;;;;;;;6.03;2.30;;;8.50;75.10;;;;;;4928084;28;20529;-81
2023/04/20 07:02:58;;;;;;;3.30;2.10;;;8.40;74.00;;;;;;4928493;28;20395;-82
2023/04/20 07:05:24;;;;;;;6.20;2.13;;;8.30;73.50;;;;;;4928400;28;20042;-81
2023/04/20 07:07:50;;;;;;;3.88;2.05;;;8.30;74.20;;;;;;4943726;28;20050;-81
2023/04/20 07:10:16;;;;;;;5.10;2.10;;;8.20;73.80;;;;;;4927764;28;20057;-81
2023/04/20 07:12:42;;;;;;;8.77;2.33;;;8.20;74.00;;;;;;4944012;28;20038;-82
2023/04/20 07:15:08;;;;;;;7.15;2.15;;;8.10;73.50;;;;;;4945225;28;20042;-82
2023/04/20 07:17:34;;;;;;;4.72;2.15;;;8.20;73.50;;;;;;4944705;28;20043;-82
2023/04/20 07:20:07;;;;;;;5.78;2.45;;;8.10;73.10;;;;;;4959997;28;20042;-83
2023/04/20 07:22:37;;;;;;;6.00;2.22;;;8.10;73.80;;;;;;4944008;28;20045;-82
2023/04/20 07:25:05;;;;;;;5.15;2.75;;;8.00;74.50;;;;;;4928472;28;20031;-81
2023/04/20 07:27:37;;;;;;;5.63;2.67;;;7.90;76.50;;;;;;4959827;28;20035;-80
2023/04/20 07:30:05;;;;;;;7.55;2.85;;;7.90;76.40;;;;;;4943620;28;20035;-79
2023/04/20 07:32:32;;;;;;;8.63;3.50;;;7.80;77.40;;;;;;4940777;29;20069;-81
2023/04/20 07:34:57;;;;;;;4.28;2.40;;;7.70;78.20;;;;;;4924590;29;20126;-79
2023/04/20 07:37:23;;;;;;;5.15;2.75;;;7.70;78.10;;;;;;4940531;29;20071;-80
2023/04/20 07:39:53;;;;;;;5.35;2.67;;;7.60;79.00;;;;;;4924748;29;20078;-81
2023/04/20 07:42:20;;;;;;;6.22;3.42;;;7.60;79.30;;;;;;4943301;28;20513;-81
2023/04/20 07:44:46;;;;;;;5.38;3.05;;;7.50;80.00;;;;;;4966010;28;20023;-81
2023/04/20 07:47:12;;;;;;;7.32;3.00;;;7.40;81.20;;;;;;4950193;28;20031;-80
2023/04/20 07:49:39;;;;;;;7.70;3.22;;;7.50;80.70;;;;;;4965387;28;20034;-80
2023/04/20 07:52:06;;;;;;;5.30;3.42;;;7.50;80.80;;;;;;4945441;29;20051;-81
2023/04/20 07:54:32;;;;;;;6.03;2.83;;;7.50;80.80;;;;;;4955361;29;20046;-80
2023/04/20 07:56:58;;;;;;;4.68;2.90;;;7.50;82.40;;;;;;4940067;29;20491;-81
2023/04/20 07:59:24;;;;;;;7.22;3.72;;;7.40;82.30;;;;;;4932005;29;20385;-81
2023/04/20 08:01:50;;;;;;;6.60;2.80;;;7.50;81.60;;;;;;4921236;29;20080;-80
2023/04/20 08:04:16;;;;;;;4.07;2.60;;;7.50;81.60;;;;;;4932970;29;20751;-81
2023/04/20 08:06:42;;;;;;;5.78;3.17;;;7.50;81.80;;;;;;4939993;29;20098;-81
2023/04/20 08:09:07;;;;;;;6.10;3.03;;;7.50;82.10;;;;;;4939840;29;20039;-82
2023/04/20 08:11:34;;;;;;;6.10;2.67;;;7.50;82.60;;;;;;4924105;29;20114;-81
2023/04/20 08:13:59;;;;;;;9.10;3.88;;;7.50;82.40;;;;;;4955951;29;20035;-82
2023/04/20 08:16:25;;;;;;;8.35;3.50;;;7.40;83.80;;;;;;4940167;28;20074;-82
2023/04/20 08:18:51;;;;;;;6.03;2.67;;;7.30;84.60;;;;;;4924067;29;20101;-81
2023/04/20 08:21:17;;;;;;;6.28;3.03;;;7.30;82.80;;;;;;4924245;29;20058;-81
2023/04/20 08:23:43;;;;;;;10.07;3.83;;;7.40;83.20;;;;;;4924236;29;20043;-81
2023/04/20 08:26:13;;;;;;;5.78;3.22;;;7.30;83.40;;;;;;4939637;29;20551;-82
2023/04/20 08:28:38;;;;;;;4.47;3.28;;;7.30;83.80;;;;;;4938853;29;20070;-82
2023/04/20 08:31:04;;;;;;;5.97;3.70;;;7.30;83.60;;;;;;4922829;29;20102;-82
2023/04/20 08:33:30;;;;;;;3.75;2.75;;;7.30;84.00;;;;;;4923204;29;20039;-81
2023/04/20 08:35:55;;;;;;;4.82;2.85;;;7.40;84.00;;;;;;4923020;29;20050;-82
2023/04/20 08:38:23;;;;;;;8.55;2.92;;;7.50;83.90;;;;;;4923762;29;20039;-81
2023/04/20 08:40:49;;;;;;;4.25;3.15;;;7.50;83.30;;;;;;4923224;29;20576;-81
2023/04/20 08:43:14;;;;;;;4.28;3.08;;;7.60;83.20;;;;;;4922998;29;20137;-83
2023/04/20 08:45:43;;;;;;;7.22;3.25;;;7.60;83.50;;;;;;4922732;29;20385;-81
2023/04/20 08:48:10;;;;;;;5.22;3.13;;;7.60;83.60;;;;;;4953695;28;20515;-81
2023/04/20 08:50:39;;;;;;;5.78;3.10;;;7.70;83.30;;;;;;4954332;29;20086;-81
2023/04/20 08:53:05;;;;;;;5.22;3.20;;;7.80;83.70;;;;;;4938532;29;20082;-81
2023/04/20 08:55:32;;;;;;;6.13;3.25;;;7.90;83.10;;;;;;4938528;29;20075;-81
2023/04/20 08:57:57;;;;;;;6.32;3.35;;;7.90;82.90;;;;;;4938068;29;20085;-83
2023/04/20 09:00:23;;;;;;;8.02;4.13;;;8.00;82.60;;;;;;4938203;29;20083;-81
2023/04/20 09:02:54;;;;;;;4.97;3.42;;;8.10;82.80;;;;;;4922353;29;20051;-82
2023/04/20 09:05:28;;;;;;;4.88;3.25;;;8.10;82.70;;;;;;4938093;29;20090;-82
2023/04/20 09:07:56;;;;;;;4.90;3.00;;;8.20;82.50;;;;;;4938165;29;20039;-82
2023/04/20 09:10:25;;;;;;;5.43;3.50;;;8.20;82.80;;;;;;4938281;29;20078;-81
2023/04/20 09:12:51;;;;;;;4.28;3.25;;;8.20;82.60;;;;;;4938418;29;20039;-82
2023/04/20 09:15:43;;;;;;;6.25;3.40;;;8.30;82.40;;;;;;4954233;29;20043;-81
2023/04/20 09:18:13;;;;;;;5.95;3.72;;;8.10;82.50;;;;;;4920854;29;20047;-82
2023/04/20 09:20:39;;;;;;;6.95;4.13;;;8.10;82.50;;;;;;4922222;29;20510;-81
2023/04/20 09:23:15;;;;;;;7.00;3.47;;;8.00;82.50;;;;;;4938042;29;20051;-81
2023/04/20 09:25:42;;;;;;;8.40;4.20;;;8.10;82.40;;;;;;4937845;29;20491;-81
2023/04/20 09:28:09;;;;;;;6.03;4.03;;;8.00;83.30;;;;;;4953470;29;20047;-80
2023/04/20 09:30:46;;;;;;;8.05;4.20;;;8.10;82.70;;;;;;4937732;29;20051;-81
2023/04/20 09:33:13;;;;;;;7.50;3.80;;;8.00;83.80;;;;;;4937894;29;20050;-81
2023/04/20 09:35:44;;;;;;;7.90;4.13;;;8.00;84.60;;;;;;4937862;29;20042;-80
2023/04/20 09:38:13;;;;;;;6.20;3.80;;;8.00;84.10;;;;;;4937467;29;20126;-80
2023/04/20 09:40:39;;;;;;;4.30;3.15;;;8.00;84.40;;;;;;4938217;29;20384;-81
2023/04/20 09:43:18;;;;;;;7.13;4.15;;;8.10;84.20;;;;;;4937608;29;20050;-81
2023/04/20 09:45:44;;;;;;;7.28;4.28;;;8.30;83.70;;;;;;4937760;29;20079;-81
2023/04/20 09:48:11;;;;;;;7.28;4.28;;;8.20;84.00;;;;;;4937447;29;20384;-82
2023/04/20 09:50:37;;;;;;;7.25;4.28;;;8.30;83.60;;;;;;4937426;29;20050;-81
2023/04/20 09:53:06;;;;;;;7.82;4.40;;;8.30;83.70;;;;;;4937741;29;20035;-81
2023/04/20 09:55:32;;;;;;;7.38;4.00;;;8.20;84.40;;;;;;4937792;29;20510;-82
2023/04/20 09:58:01;;;;;;;6.28;3.70;;;8.30;83.70;;;;;;4937392;29;20155;-82
2023/04/20 10:00:26;;;;;;;6.70;4.18;;;8.30;83.70;;;;;;4939683;29;20063;-81
2023/04/20 10:02:52;;;;;;;9.20;4.32;;;8.30;83.90;;;;;;4941862;29;20492;-81
2023/04/20 10:05:18;;;;;;;5.85;3.60;;;8.30;84.30;;;;;;4941768;28;20368;-84
2023/04/20 10:07:44;;;;;;;6.90;4.25;;;8.30;84.20;;;;;;4925349;29;20451;-82
2023/04/20 10:10:15;;;;;;;9.88;4.68;;;8.40;83.90;;;;;;4925472;29;20105;-83
2023/04/20 10:12:51;;;;;;;7.85;3.42;;;8.40;84.30;;;;;;4941477;29;20384;-79
2023/04/20 10:15:17;;;;;;;8.25;4.10;;;8.50;83.50;;;;;;4941092;29;20046;-82
2023/04/20 10:17:43;;;;;;;6.43;3.83;;;8.60;83.10;;;;;;4957258;29;20047;-81
2023/04/20 10:20:27;;;;;;;8.38;3.85;;;8.70;83.20;;;;;;4941257;29;20126;-82
2023/04/20 10:23:05;;;;;;;6.50;5.18;;;8.90;83.10;;;;;;4940785;29;20039;-82
2023/04/20 10:25:30;;;;;;;5.25;4.32;;;9.00;82.90;;;;;;4957141;29;20146;-82
2023/04/20 10:28:08;;;;;;;7.55;4.38;;;9.10;82.60;;;;;;4925533;29;20543;-82
2023/04/20 10:30:35;;;;;;;5.93;4.07;;;9.10;82.40;;;;;;4957033;29;20054;-80
2023/04/20 10:33:11;;;;;;;6.88;4.10;;;9.20;82.50;;;;;;4956708;29;20047;-81
2023/04/20 10:35:53;;;;;;;7.15;4.47;;;9.10;82.00;;;;;;4941188;29;20384;-82
2023/04/20 10:38:29;;;;;;;6.90;4.50;;;9.10;81.70;;;;;;4956468;28;20551;-82
2023/04/20 10:40:55;;;;;;;6.18;4.20;;;9.10;81.40;;;;;;4940974;29;20083;-82
2023/04/20 10:43:21;;;;;;;7.78;4.15;;;9.20;81.40;;;;;;4925325;29;20451;-81
2023/04/20 10:45:48;;;;;;;7.85;4.45;;;9.20;81.40;;;;;;4925299;29;20039;-82
2023/04/20 10:48:13;;;;;;;7.28;4.07;;;9.30;81.30;;;;;;4940309;29;20098;-82
2023/04/20 10:50:41;;;;;;;7.00;4.00;;;9.20;81.40;;;;;;4940656;29;20406;-83
2023/04/20 10:53:18;;;;;;;7.50;4.45;;;9.20;81.30;;;;;;4940282;28;20081;-82
2023/04/20 10:55:44;;;;;;;5.63;3.63;;;9.10;81.10;;;;;;4940644;29;20101;-83
2023/04/20 10:58:21;;;;;;;6.32;4.45;;;9.00;81.30;;;;;;4924712;29;20051;-84
2023/04/20 11:00:56;;;;;;;5.97;3.97;;;8.90;80.90;;;;;;4940480;29;20534;-83
2023/04/20 11:03:22;;;;;;;5.25;4.40;;;8.80;81.40;;;;;;4924730;29;20094;-83
2023/04/20 11:05:50;;;;;;;6.00;4.15;;;8.90;81.30;;;;;;4940729;29;20047;-83
2023/04/20 11:08:16;;;;;;;10.68;5.22;;;8.90;81.30;;;;;;4923516;28;20036;-82
2023/04/20 11:10:42;;;;;;;8.07;4.38;;;8.80;82.00;;;;;;4924306;28;20047;-83
2023/04/20 11:13:24;;;;;;;8.18;5.22;;;8.90;81.50;;;;;;4956349;29;20081;-82
2023/04/20 11:15:50;;;;;;;5.80;4.05;;;8.90;81.60;;;;;;4909741;29;20050;-81
2023/04/20 11:18:17;;;;;;;5.15;4.30;;;8.90;81.50;;;;;;4941420;29;20050;-83
2023/04/20 11:20:53;;;;;;;8.32;4.63;;;8.90;81.40;;;;;;4941169;29;20492;-81
2023/04/20 11:23:26;;;;;;;9.90;4.63;;;8.90;81.60;;;;;;4941188;29;20133;-82
2023/04/20 11:25:54;;;;;;;7.22;4.60;;;8.80;82.00;;;;;;4921928;29;20126;-81
2023/04/20 11:28:20;;;;;;;5.50;4.03;;;8.90;81.70;;;;;;4937747;29;20040;-82
2023/04/20 11:30:46;;;;;;;8.55;4.10;;;8.90;81.70;;;;;;4937986;29;20135;-82
2023/04/20 11:33:12;;;;;;;5.97;4.13;;;8.90;82.00;;;;;;4921817;29;20035;-81
2023/04/20 11:35:42;;;;;;;7.68;4.57;;;8.90;81.80;;;;;;4938103;29;20118;-82
2023/04/20 11:38:08;;;;;;;6.47;5.10;;;8.80;81.90;;;;;;4920981;29;20492;-82
2023/04/20 11:40:35;;;;;;;6.95;4.68;;;8.80;82.40;;;;;;4938873;29;20101;-82
2023/04/20 11:43:01;;;;;;;9.50;5.55;;;8.80;82.70;;;;;;4939921;29;20062;-83
2023/04/20 11:45:29;;;;;;;9.90;4.70;;;8.80;82.60;;;;;;4939618;29;20134;-81
2023/04/20 11:47:55;;;;;;;7.40;4.68;;;8.80;82.20;;;;;;4939681;29;20055;-81
2023/04/20 11:50:21;;;;;;;8.18;5.60;;;8.90;82.60;;;;;;4908098;29;20460;-83
2023/04/20 11:52:47;;;;;;;8.25;5.32;;;8.90;82.40;;;;;;4939606;29;20050;-82
2023/04/20 11:55:13;;;;;;;6.25;5.03;;;8.80;82.30;;;;;;4907706;29;20043;-83
2023/04/20 11:57:39;;;;;;;6.75;4.90;;;9.00;82.80;;;;;;4907077;28;20043;-83
2023/04/20 12:00:06;;;;;;;8.30;5.50;;;9.10;82.80;;;;;;4939023;29;20065;-82
2023/04/20 12:02:31;;;;;;;8.32;5.10;;;9.20;83.10;;;;;;4907802;29;20150;-82
2023/04/20 12:05:00;;;;;;;6.43;5.20;;;9.40;82.40;;;;;;4939439;29;20134;-83
2023/04/20 12:07:30;;;;;;;9.85;5.63;;;9.30;82.30;;;;;;4939578;29;20047;-82
2023/04/20 12:09:55;;;;;;;6.25;4.80;;;9.40;82.10;;;;;;4923259;29;20047;-80
2023/04/20 12:12:25;;;;;;;8.60;5.50;;;9.40;82.10;;;;;;4907788;29;20047;-83
2023/04/20 12:14:50;;;;;;;7.10;5.40;;;9.40;82.40;;;;;;4954444;29;20043;-81
2023/04/20 12:17:16;;;;;;;6.05;4.53;;;9.40;82.10;;;;;;4923415;29;20054;-82
2023/04/20 12:19:42;;;;;;;8.73;5.35;;;9.40;81.80;;;;;;4923200;29;20130;-82
2023/04/20 12:22:07;;;;;;;8.43;5.10;;;9.40;82.30;;;;;;4938868;29;20043;-80
2023/04/20 12:24:33;;;;;;;6.75;5.20;;;9.50;82.30;;;;;;4906715;29;20227;-81
2023/04/20 12:26:59;;;;;;;7.57;5.53;;;9.60;82.10;;;;;;4938814;29;20058;-83
2023/04/20 12:29:25;;;;;;;8.77;5.60;;;9.60;82.30;;;;;;4903323;29;20036;-81
2023/04/20 12:31:50;;;;;;;8.40;5.20;;;9.70;81.80;;;;;;4919853;29;20047;-81
2023/04/20 12:34:16;;;;;;;7.28;5.82;;;9.80;81.70;;;;;;4920032;29;20071;-80
2023/04/20 12:36:42;;;;;;;9.00;5.35;;;9.80;81.40;;;;;;4904288;29;20134;-82
2023/04/20 12:39:10;;;;;;;9.73;6.13;;;9.80;81.30;;;;;;4904425;29;20102;-82
2023/04/20 12:41:36;;;;;;;6.47;4.95;;;9.90;81.00;;;;;;4920003;29;20047;-81
2023/04/20 12:44:10;;;;;;;8.10;5.63;;;9.80;81.20;;;;;;5090981;27;20413;-82
2023/04/20 12:46:35;;;;;;;7.70;6.00;;;10.00;81.20;;;;;;5086586;28;20399;-80
2023/04/20 12:49:01;;;;;;;8.52;5.30;;;10.20;80.90;;;;;;5053135;28;20049;-81
2023/04/20 12:51:27;;;;;;;10.55;6.13;;;10.40;80.50;;;;;;5069665;28;20037;-81
2023/04/20 12:53:53;;;;;;;11.52;6.47;;;10.50;80.00;;;;;;5070204;28;20047;-82